sensor_id;sensor_type;location;lat;lon;timestamp;pressure;altitude;pressure_sealevel;temperature;humidity
20620;BME280;10469;42.720;23.252;2023-08-07T00:00:11;94365.28;;;16.68;100.00
20620;BME280;10469;42.720;23.252;2023-08-07T00:02:37;94342.22;;;16.71;100.00
20620;BME280;10469;42.720;23.252;2023-08-07T00:05:04;94356.50;;;16.82;100.00
20620;BME280;10469;42.720;23.252;2023-08-07T00:07:30;94345.13;;;16.79;100.00
20620;BME280;10469;42.720;23.252;2023-08-07T00:09:56;94363.69;;;16.67;100.00
20620;BME280;10469;42.720;23.252;2023-08-07T00:12:21;94365.16;;;16.54;100.00
20620;BME280;10469;42.720;23.252;2023-08-07T00:14:50;94367.69;;;16.46;100.00
20620;BME280;10469;42.720;23.252;2023-08-07T00:17:16;94364.19;;;16.40;100.00
20620;BME280;10469;42.720;23.252;2023-08-07T00:19:42;94364.19;;;16.40;100.00
20620;BME280;10469;42.720;23.252;2023-08-07T00:22:07;94358.94;;;16.25;100.00
20620;BME280;10469;42.720;23.252;2023-08-07T00:24:33;94346.44;;;16.00;100.00
20620;BME280;10469;42.720;23.252;2023-08-07T00:26:59;94374.75;;;16.13;100.00
20620;BME280;10469;42.720;23.252;2023-08-07T00:29:25;94374.31;;;16.29;100.00
20620;BME280;10469;42.720;23.252;2023-08-07T00:31:50;94360.47;;;16.07;100.00
20620;BME280;10469;42.720;23.252;2023-08-07T00:34:16;94383.19;;;16.01;100.00
20620;BME280;10469;42.720;23.252;2023-08-07T00:36:41;94381.28;;;16.07;100.00
20620;BME280;10469;42.720;23.252;2023-08-07T00:39:07;94383.59;;;16.18;100.00
20620;BME280;10469;42.720;23.252;2023-08-07T00:41:33;94371.22;;;16.12;100.00
20620;BME280;10469;42.720;23.252;2023-08-07T00:43:59;94355.13;;;15.97;100.00
20620;BME280;10469;42.720;23.252;2023-08-07T00:46:26;94374.28;;;16.00;100.00
20620;BME280;10469;42.720;23.252;2023-08-07T00:48:52;94372.63;;;16.04;100.00
20620;BME280;10469;42.720;23.252;2023-08-07T00:51:19;94367.63;;;15.88;100.00
20620;BME280;10469;42.720;23.252;2023-08-07T00:53:45;94383.28;;;15.91;100.00
20620;BME280;10469;42.720;23.252;2023-08-07T00:56:12;94382.78;;;15.84;100.00
20620;BME280;10469;42.720;23.252;2023-08-07T00:58:38;94379.03;;;15.79;100.00
20620;BME280;10469;42.720;23.252;2023-08-07T01:01:05;94389.84;;;15.85;100.00
20620;BME280;10469;42.720;23.252;2023-08-07T01:03:31;94386.97;;;15.61;100.00
20620;BME280;10469;42.720;23.252;2023-08-07T01:05:56;94399.41;;;15.62;100.00
20620;BME280;10469;42.720;23.252;2023-08-07T01:08:25;94409.19;;;15.52;100.00
20620;BME280;10469;42.720;23.252;2023-08-07T01:11:20;94421.31;;;15.65;100.00
20620;BME280;10469;42.720;23.252;2023-08-07T01:17:08;94411.56;;;16.09;100.00
20620;BME280;10469;42.720;23.252;2023-08-07T01:19:35;94406.34;;;15.78;100.00
20620;BME280;10469;42.720;23.252;2023-08-07T01:22:15;94421.72;;;15.83;100.00
20620;BME280;10469;42.720;23.252;2023-08-07T01:24:46;94416.47;;;15.52;100.00
20620;BME280;10469;42.720;23.252;2023-08-07T01:33:03;94408.97;;;15.93;100.00
20620;BME280;10469;42.720;23.252;2023-08-07T01:35:38;94415.41;;;16.02;100.00
20620;BME280;10469;42.720;23.252;2023-08-07T01:38:05;94419.06;;;16.17;100.00
20620;BME280;10469;42.720;23.252;2023-08-07T01:40:31;94421.31;;;16.04;100.00
20620;BME280;10469;42.720;23.252;2023-08-07T01:42:57;94416.88;;;16.19;100.00
20620;BME280;10469;42.720;23.252;2023-08-07T01:45:27;94410.78;;;16.03;100.00
20620;BME280;10469;42.720;23.252;2023-08-07T01:47:53;94411.28;;;15.61;100.00
20620;BME280;10469;42.720;23.252;2023-08-07T01:50:19;94414.03;;;15.55;100.00
20620;BME280;10469;42.720;23.252;2023-08-07T01:52:45;94401.28;;;15.61;100.00
20620;BME280;10469;42.720;23.252;2023-08-07T01:55:13;94414.72;;;15.82;100.00
20620;BME280;10469;42.720;23.252;2023-08-07T01:57:39;94388.25;;;15.29;100.00
20620;BME280;10469;42.720;23.252;2023-08-07T02:00:05;94408.44;;;15.42;100.00
20620;BME280;10469;42.720;23.252;2023-08-07T02:02:31;94414.66;;;15.42;100.00
20620;BME280;10469;42.720;23.252;2023-08-07T02:04:57;94415.69;;;15.51;100.00
20620;BME280;10469;42.720;23.252;2023-08-07T02:07:22;94418.94;;;15.48;100.00
20620;BME280;10469;42.720;23.252;2023-08-07T02:09:48;94406.78;;;15.41;100.00
20620;BME280;10469;42.720;23.252;2023-08-07T02:12:13;94427.81;;;15.59;100.00
20620;BME280;10469;42.720;23.252;2023-08-07T02:14:39;94419.19;;;15.52;100.00
20620;BME280;10469;42.720;23.252;2023-08-07T02:17:05;94413.44;;;15.59;100.00
20620;BME280;10469;42.720;23.252;2023-08-07T02:19:30;94440.22;;;15.65;100.00
20620;BME280;10469;42.720;23.252;2023-08-07T02:21:56;94440.75;;;15.62;100.00
20620;BME280;10469;42.720;23.252;2023-08-07T02:24:21;94435.91;;;15.59;100.00
20620;BME280;10469;42.720;23.252;2023-08-07T02:26:47;94438.28;;;15.71;100.00
20620;BME280;10469;42.720;23.252;2023-08-07T02:29:13;94439.28;;;15.90;100.00
20620;BME280;10469;42.720;23.252;2023-08-07T02:31:38;94418.06;;;15.68;100.00
20620;BME280;10469;42.720;23.252;2023-08-07T02:34:04;94441.75;;;15.82;100.00
20620;BME280;10469;42.720;23.252;2023-08-07T02:36:29;94432.16;;;15.99;100.00
20620;BME280;10469;42.720;23.252;2023-08-07T02:38:55;94431.03;;;15.61;100.00
20620;BME280;10469;42.720;23.252;2023-08-07T02:41:21;94429.41;;;15.65;100.00
20620;BME280;10469;42.720;23.252;2023-08-07T02:43:46;94448.84;;;15.62;100.00
20620;BME280;10469;42.720;23.252;2023-08-07T02:46:12;94446.72;;;15.59;100.00
20620;BME280;10469;42.720;23.252;2023-08-07T02:48:37;94434.38;;;15.38;100.00
20620;BME280;10469;42.720;23.252;2023-08-07T02:51:04;94447.56;;;15.49;100.00
20620;BME280;10469;42.720;23.252;2023-08-07T02:53:30;94454.19;;;15.18;100.00
20620;BME280;10469;42.720;23.252;2023-08-07T02:55:55;94452.50;;;15.32;100.00
20620;BME280;10469;42.720;23.252;2023-08-07T02:58:21;94446.84;;;15.34;100.00
20620;BME280;10469;42.720;23.252;2023-08-07T03:00:46;94452.25;;;15.34;100.00
20620;BME280;10469;42.720;23.252;2023-08-07T03:03:12;94435.56;;;15.16;100.00
20620;BME280;10469;42.720;23.252;2023-08-07T03:05:38;94442.50;;;15.38;100.00
20620;BME280;10469;42.720;23.252;2023-08-07T03:08:03;94463.47;;;15.56;100.00
20620;BME280;10469;42.720;23.252;2023-08-07T03:10:29;94464.94;;;15.28;100.00
20620;BME280;10469;42.720;23.252;2023-08-07T03:12:55;94459.28;;;15.29;100.00
20620;BME280;10469;42.720;23.252;2023-08-07T03:15:20;94468.75;;;15.22;100.00
20620;BME280;10469;42.720;23.252;2023-08-07T03:17:46;94474.81;;;15.58;100.00
20620;BME280;10469;42.720;23.252;2023-08-07T03:20:12;94471.31;;;15.52;100.00
20620;BME280;10469;42.720;23.252;2023-08-07T03:22:37;94461.63;;;15.51;100.00
20620;BME280;10469;42.720;23.252;2023-08-07T03:25:03;94475.63;;;15.64;100.00
20620;BME280;10469;42.720;23.252;2023-08-07T03:27:29;94478.31;;;15.69;100.00
20620;BME280;10469;42.720;23.252;2023-08-07T03:29:54;94473.63;;;15.90;100.00
20620;BME280;10469;42.720;23.252;2023-08-07T03:32:20;94476.56;;;15.88;100.00
20620;BME280;10469;42.720;23.252;2023-08-07T03:34:45;94470.09;;;15.84;100.00
20620;BME280;10469;42.720;23.252;2023-08-07T03:37:11;94487.53;;;16.12;100.00
20620;BME280;10469;42.720;23.252;2023-08-07T03:39:36;94498.78;;;16.29;100.00
20620;BME280;10469;42.720;23.252;2023-08-07T03:42:02;94481.78;;;16.24;100.00
20620;BME280;10469;42.720;23.252;2023-08-07T03:44:28;94501.09;;;16.46;100.00
20620;BME280;10469;42.720;23.252;2023-08-07T03:46:54;94475.03;;;16.21;100.00
20620;BME280;10469;42.720;23.252;2023-08-07T03:49:21;94511.16;;;16.41;100.00
20620;BME280;10469;42.720;23.252;2023-08-07T03:51:48;94506.56;;;16.41;100.00
20620;BME280;10469;42.720;23.252;2023-08-07T03:54:14;94513.41;;;16.28;100.00
20620;BME280;10469;42.720;23.252;2023-08-07T03:56:40;94517.91;;;15.99;100.00
20620;BME280;10469;42.720;23.252;2023-08-07T03:59:06;94511.31;;;16.15;100.00
20620;BME280;10469;42.720;23.252;2023-08-07T04:01:31;94513.91;;;16.30;100.00
20620;BME280;10469;42.720;23.252;2023-08-07T04:03:57;94520.69;;;16.67;100.00
20620;BME280;10469;42.720;23.252;2023-08-07T04:06:23;94516.13;;;16.23;100.00
20620;BME280;10469;42.720;23.252;2023-08-07T04:08:48;94513.88;;;16.75;100.00
20620;BME280;10469;42.720;23.252;2023-08-07T04:11:14;94533.28;;;17.16;100.00
20620;BME280;10469;42.720;23.252;2023-08-07T04:13:39;94530.88;;;17.10;100.00
20620;BME280;10469;42.720;23.252;2023-08-07T04:16:05;94528.19;;;16.80;100.00
20620;BME280;10469;42.720;23.252;2023-08-07T04:18:32;94527.47;;;16.99;100.00
20620;BME280;10469;42.720;23.252;2023-08-07T04:20:59;94534.88;;;17.17;100.00
20620;BME280;10469;42.720;23.252;2023-08-07T04:23:25;94534.59;;;16.90;100.00
20620;BME280;10469;42.720;23.252;2023-08-07T04:25:51;94521.19;;;16.74;100.00
20620;BME280;10469;42.720;23.252;2023-08-07T04:28:17;94533.19;;;16.97;100.00
20620;BME280;10469;42.720;23.252;2023-08-07T04:30:44;94541.16;;;17.42;100.00
20620;BME280;10469;42.720;23.252;2023-08-07T04:33:10;94542.19;;;17.46;100.00
20620;BME280;10469;42.720;23.252;2023-08-07T04:35:35;94552.06;;;17.08;100.00
20620;BME280;10469;42.720;23.252;2023-08-07T04:38:01;94541.66;;;16.51;100.00
20620;BME280;10469;42.720;23.252;2023-08-07T04:40:28;94548.38;;;17.22;100.00
20620;BME280;10469;42.720;23.252;2023-08-07T04:42:54;94536.31;;;17.63;100.00
20620;BME280;10469;42.720;23.252;2023-08-07T04:45:19;94545.38;;;17.77;100.00
20620;BME280;10469;42.720;23.252;2023-08-07T04:47:45;94534.91;;;17.65;100.00
20620;BME280;10469;42.720;23.252;2023-08-07T04:50:11;94544.50;;;17.34;100.00
20620;BME280;10469;42.720;23.252;2023-08-07T04:52:36;94543.72;;;17.81;100.00
20620;BME280;10469;42.720;23.252;2023-08-07T04:55:02;94532.31;;;18.03;100.00
20620;BME280;10469;42.720;23.252;2023-08-07T04:57:28;94528.97;;;18.49;100.00
20620;BME280;10469;42.720;23.252;2023-08-07T04:59:53;94532.34;;;18.41;100.00
20620;BME280;10469;42.720;23.252;2023-08-07T05:02:19;94541.06;;;18.19;100.00
20620;BME280;10469;42.720;23.252;2023-08-07T05:04:45;94542.47;;;18.35;100.00
20620;BME280;10469;42.720;23.252;2023-08-07T05:07:11;94537.44;;;18.04;100.00
20620;BME280;10469;42.720;23.252;2023-08-07T05:09:38;94541.16;;;17.42;100.00
20620;BME280;10469;42.720;23.252;2023-08-07T05:12:04;94525.78;;;17.85;100.00
20620;BME280;10469;42.720;23.252;2023-08-07T05:14:30;94528.75;;;18.26;100.00
20620;BME280;10469;42.720;23.252;2023-08-07T05:16:56;94525.44;;;18.48;100.00
20620;BME280;10469;42.720;23.252;2023-08-07T05:19:22;94527.03;;;18.87;100.00
20620;BME280;10469;42.720;23.252;2023-08-07T05:21:48;94525.53;;;19.27;100.00
20620;BME280;10469;42.720;23.252;2023-08-07T05:24:17;94533.78;;;19.22;100.00
20620;BME280;10469;42.720;23.252;2023-08-07T05:26:43;94519.28;;;18.43;100.00
20620;BME280;10469;42.720;23.252;2023-08-07T05:29:09;94528.72;;;19.29;100.00
20620;BME280;10469;42.720;23.252;2023-08-07T05:31:34;94525.66;;;19.03;100.00
20620;BME280;10469;42.720;23.252;2023-08-07T05:34:00;94521.19;;;19.26;100.00
20620;BME280;10469;42.720;23.252;2023-08-07T05:36:26;94523.81;;;18.66;100.00
20620;BME280;10469;42.720;23.252;2023-08-07T05:38:51;94549.09;;;19.46;100.00
20620;BME280;10469;42.720;23.252;2023-08-07T05:41:17;94528.94;;;18.30;100.00
20620;BME280;10469;42.720;23.252;2023-08-07T05:43:42;94546.16;;;18.44;100.00
20620;BME280;10469;42.720;23.252;2023-08-07T05:46:08;94540.31;;;18.89;100.00
20620;BME280;10469;42.720;23.252;2023-08-07T05:48:34;94550.53;;;18.59;100.00
20620;BME280;10469;42.720;23.252;2023-08-07T05:50:59;94558.13;;;19.14;100.00
20620;BME280;10469;42.720;23.252;2023-08-07T05:53:25;94540.66;;;20.16;100.00
20620;BME280;10469;42.720;23.252;2023-08-07T05:55:50;94532.19;;;20.32;100.00
20620;BME280;10469;42.720;23.252;2023-08-07T05:58:16;94533.31;;;21.65;100.00
20620;BME280;10469;42.720;23.252;2023-08-07T06:00:42;94539.03;;;22.78;100.00
20620;BME280;10469;42.720;23.252;2023-08-07T06:03:07;94539.16;;;22.21;100.00
20620;BME280;10469;42.720;23.252;2023-08-07T06:05:39;94524.78;;;24.10;100.00
20620;BME280;10469;42.720;23.252;2023-08-07T06:08:05;94536.34;;;23.04;100.00
20620;BME280;10469;42.720;23.252;2023-08-07T06:10:31;94539.34;;;21.93;100.00
20620;BME280;10469;42.720;23.252;2023-08-07T06:12:56;94532.34;;;22.93;100.00
20620;BME280;10469;42.720;23.252;2023-08-07T06:15:22;94522.00;;;23.16;100.00
20620;BME280;10469;42.720;23.252;2023-08-07T06:17:47;94527.34;;;25.86;100.00
20620;BME280;10469;42.720;23.252;2023-08-07T06:20:13;94516.16;;;24.20;100.00
20620;BME280;10469;42.720;23.252;2023-08-07T06:22:47;94517.38;;;24.40;100.00
20620;BME280;10469;42.720;23.252;2023-08-07T06:25:13;94513.63;;;24.86;100.00
20620;BME280;10469;42.720;23.252;2023-08-07T06:27:38;94501.19;;;24.89;100.00
20620;BME280;10469;42.720;23.252;2023-08-07T06:30:04;94503.38;;;24.95;100.00
20620;BME280;10469;42.720;23.252;2023-08-07T06:32:31;94508.66;;;24.38;100.00
20620;BME280;10469;42.720;23.252;2023-08-07T06:34:56;94498.50;;;24.80;100.00
20620;BME280;10469;42.720;23.252;2023-08-07T06:37:22;94508.84;;;26.84;99.25
20620;BME280;10469;42.720;23.252;2023-08-07T06:39:47;94515.09;;;25.38;100.00
20620;BME280;10469;42.720;23.252;2023-08-07T06:42:13;94516.56;;;25.81;100.00
20620;BME280;10469;42.720;23.252;2023-08-07T06:44:39;94524.19;;;24.96;99.60
20620;BME280;10469;42.720;23.252;2023-08-07T06:47:04;94521.81;;;26.71;94.86
20620;BME280;10469;42.720;23.252;2023-08-07T06:49:30;94513.94;;;26.33;90.95
20620;BME280;10469;42.720;23.252;2023-08-07T06:51:57;94514.84;;;27.58;86.24
20620;BME280;10469;42.720;23.252;2023-08-07T06:54:23;94512.59;;;25.78;91.93
20620;BME280;10469;42.720;23.252;2023-08-07T06:56:49;94518.50;;;25.22;95.15
20620;BME280;10469;42.720;23.252;2023-08-07T06:59:14;94509.03;;;26.14;89.98
20620;BME280;10469;42.720;23.252;2023-08-07T07:01:40;94515.69;;;26.01;87.78
20620;BME280;10469;42.720;23.252;2023-08-07T07:04:05;94519.13;;;27.27;85.07
20620;BME280;10469;42.720;23.252;2023-08-07T07:06:31;94516.25;;;26.56;79.99
20620;BME280;10469;42.720;23.252;2023-08-07T07:08:57;94497.56;;;24.97;92.53
20620;BME280;10469;42.720;23.252;2023-08-07T07:11:22;94520.75;;;24.07;97.09
20620;BME280;10469;42.720;23.252;2023-08-07T07:13:50;94511.78;;;26.02;88.61
20620;BME280;10469;42.720;23.252;2023-08-07T07:16:18;94524.44;;;26.80;83.62
20620;BME280;10469;42.720;23.252;2023-08-07T07:18:44;94529.47;;;25.22;90.84
20620;BME280;10469;42.720;23.252;2023-08-07T07:21:09;94508.03;;;27.84;83.47
20620;BME280;10469;42.720;23.252;2023-08-07T07:23:35;94512.63;;;26.80;84.48
20620;BME280;10469;42.720;23.252;2023-08-07T07:26:00;94496.38;;;28.73;75.50
20620;BME280;10469;42.720;23.252;2023-08-07T07:28:27;94505.44;;;27.59;72.07
20620;BME280;10469;42.720;23.252;2023-08-07T07:30:53;94508.41;;;26.82;76.64
20620;BME280;10469;42.720;23.252;2023-08-07T07:33:18;94501.09;;;27.02;73.28
20620;BME280;10469;42.720;23.252;2023-08-07T07:35:44;94501.44;;;27.57;76.66
20620;BME280;10469;42.720;23.252;2023-08-07T07:38:10;94504.16;;;26.72;74.34
20620;BME280;10469;42.720;23.252;2023-08-07T07:40:35;94498.25;;;26.46;69.37
20620;BME280;10469;42.720;23.252;2023-08-07T07:43:02;94501.97;;;26.78;72.80
20620;BME280;10469;42.720;23.252;2023-08-07T07:45:28;94506.69;;;26.77;71.72
20620;BME280;10469;42.720;23.252;2023-08-07T07:47:53;94507.09;;;26.27;74.49
20620;BME280;10469;42.720;23.252;2023-08-07T07:50:19;94523.03;;;26.09;75.55
20620;BME280;10469;42.720;23.252;2023-08-07T07:52:44;94517.25;;;27.60;69.02
20620;BME280;10469;42.720;23.252;2023-08-07T07:55:10;94496.84;;;27.33;69.86
20620;BME280;10469;42.720;23.252;2023-08-07T07:57:37;94513.84;;;26.54;74.68
20620;BME280;10469;42.720;23.252;2023-08-07T08:00:03;94507.13;;;26.80;76.08
20620;BME280;10469;42.720;23.252;2023-08-07T08:02:33;94500.38;;;27.61;72.25
20620;BME280;10469;42.720;23.252;2023-08-07T08:04:58;94501.13;;;27.90;69.96
20620;BME280;10469;42.720;23.252;2023-08-07T08:07:24;94504.44;;;26.43;72.28
20620;BME280;10469;42.720;23.252;2023-08-07T08:09:50;94497.13;;;26.10;75.41
20620;BME280;10469;42.720;23.252;2023-08-07T08:12:16;94494.03;;;26.89;69.52
20620;BME280;10469;42.720;23.252;2023-08-07T08:14:41;94488.38;;;27.10;66.96
20620;BME280;10469;42.720;23.252;2023-08-07T08:17:07;94491.03;;;27.66;67.37
20620;BME280;10469;42.720;23.252;2023-08-07T08:19:33;94490.69;;;26.95;75.45
20620;BME280;10469;42.720;23.252;2023-08-07T08:21:58;94491.69;;;27.03;72.15
20620;BME280;10469;42.720;23.252;2023-08-07T08:24:24;94483.66;;;27.70;67.48
20620;BME280;10469;42.720;23.252;2023-08-07T08:26:50;94492.97;;;26.41;75.07
20620;BME280;10469;42.720;23.252;2023-08-07T08:29:15;94476.50;;;29.22;59.78
20620;BME280;10469;42.720;23.252;2023-08-07T08:31:41;94465.31;;;28.76;56.85
20620;BME280;10469;42.720;23.252;2023-08-07T08:34:07;94475.66;;;27.49;62.27
20620;BME280;10469;42.720;23.252;2023-08-07T08:36:32;94464.81;;;28.35;58.81
20620;BME280;10469;42.720;23.252;2023-08-07T08:38:58;94447.69;;;28.81;56.37
20620;BME280;10469;42.720;23.252;2023-08-07T08:41:24;94466.56;;;30.06;51.68
20620;BME280;10469;42.720;23.252;2023-08-07T08:43:51;94467.53;;;28.70;56.43
20620;BME280;10469;42.720;23.252;2023-08-07T08:46:20;94464.75;;;29.67;52.49
20620;BME280;10469;42.720;23.252;2023-08-07T08:48:55;94472.06;;;27.33;65.91
20620;BME280;10469;42.720;23.252;2023-08-07T08:51:22;94458.31;;;27.05;66.15
20620;BME280;10469;42.720;23.252;2023-08-07T08:53:52;94469.72;;;26.91;69.88
20620;BME280;10469;42.720;23.252;2023-08-07T08:56:19;94467.78;;;27.19;67.94
20620;BME280;10469;42.720;23.252;2023-08-07T08:58:47;94462.56;;;27.90;67.07
20620;BME280;10469;42.720;23.252;2023-08-07T09:01:13;94460.44;;;28.69;60.48
20620;BME280;10469;42.720;23.252;2023-08-07T09:03:39;94457.22;;;29.45;57.62
20620;BME280;10469;42.720;23.252;2023-08-07T09:06:06;94462.19;;;30.05;54.61
20620;BME280;10469;42.720;23.252;2023-08-07T09:08:33;94467.44;;;28.47;57.03
20620;BME280;10469;42.720;23.252;2023-08-07T09:11:00;94466.75;;;28.35;55.76
20620;BME280;10469;42.720;23.252;2023-08-07T09:13:28;94461.56;;;29.04;56.97
20620;BME280;10469;42.720;23.252;2023-08-07T09:15:53;94456.28;;;29.37;54.96
20620;BME280;10469;42.720;23.252;2023-08-07T09:18:20;94453.81;;;28.55;55.03
20620;BME280;10469;42.720;23.252;2023-08-07T09:20:46;94448.53;;;28.14;60.34
20620;BME280;10469;42.720;23.252;2023-08-07T09:23:12;94441.47;;;28.87;55.13
20620;BME280;10469;42.720;23.252;2023-08-07T09:25:38;94435.97;;;28.87;51.96
20620;BME280;10469;42.720;23.252;2023-08-07T09:28:05;94440.28;;;28.85;54.99
20620;BME280;10469;42.720;23.252;2023-08-07T09:30:32;94429.38;;;31.16;45.58
20620;BME280;10469;42.720;23.252;2023-08-07T09:32:59;94436.78;;;32.31;41.59
20620;BME280;10469;42.720;23.252;2023-08-07T09:35:25;94436.38;;;32.29;41.71
20620;BME280;10469;42.720;23.252;2023-08-07T09:37:51;94428.97;;;33.31;40.24
20620;BME280;10469;42.720;23.252;2023-08-07T09:40:18;94430.13;;;31.88;42.61
20620;BME280;10469;42.720;23.252;2023-08-07T09:42:43;94417.72;;;31.00;43.01
20620;BME280;10469;42.720;23.252;2023-08-07T09:45:27;94439.19;;;29.09;51.03
20620;BME280;10469;42.720;23.252;2023-08-07T09:48:04;94432.50;;;29.98;49.87
20620;BME280;10469;42.720;23.252;2023-08-07T09:50:33;94430.88;;;29.51;49.09
20620;BME280;10469;42.720;23.252;2023-08-07T09:52:59;94428.16;;;31.51;43.64
20620;BME280;10469;42.720;23.252;2023-08-07T09:55:25;94420.53;;;32.95;38.94
20620;BME280;10469;42.720;23.252;2023-08-07T09:57:51;94428.31;;;32.65;39.08
20620;BME280;10469;42.720;23.252;2023-08-07T10:00:17;94428.75;;;29.41;47.58
20620;BME280;10469;42.720;23.252;2023-08-07T10:02:48;94426.47;;;29.92;48.95
20620;BME280;10469;42.720;23.252;2023-08-07T10:05:15;94409.19;;;30.82;45.18
20620;BME280;10469;42.720;23.252;2023-08-07T10:07:41;94441.19;;;28.92;50.70
20620;BME280;10469;42.720;23.252;2023-08-07T10:10:07;94440.84;;;29.79;50.33
20620;BME280;10469;42.720;23.252;2023-08-07T10:12:34;94435.19;;;29.94;46.97
20620;BME280;10469;42.720;23.252;2023-08-07T10:15:00;94439.31;;;30.31;46.13
20620;BME280;10469;42.720;23.252;2023-08-07T10:17:27;94433.22;;;30.44;49.99
20620;BME280;10469;42.720;23.252;2023-08-07T10:19:53;94427.63;;;31.76;44.07
20620;BME280;10469;42.720;23.252;2023-08-07T10:22:19;94417.00;;;29.24;52.36
20620;BME280;10469;42.720;23.252;2023-08-07T10:24:48;94419.03;;;29.28;54.87
20620;BME280;10469;42.720;23.252;2023-08-07T10:27:18;94404.22;;;30.95;48.72
20620;BME280;10469;42.720;23.252;2023-08-07T10:29:49;94415.13;;;30.24;46.55
20620;BME280;10469;42.720;23.252;2023-08-07T10:32:18;94417.19;;;28.54;56.51
20620;BME280;10469;42.720;23.252;2023-08-07T10:34:49;94425.88;;;28.75;56.42
20620;BME280;10469;42.720;23.252;2023-08-07T10:40:07;94413.50;;;30.19;55.02
20620;BME280;10469;42.720;23.252;2023-08-07T10:45:21;94420.19;;;29.27;55.72
20620;BME280;10469;42.720;23.252;2023-08-07T10:48:08;94409.44;;;29.64;55.26
20620;BME280;10469;42.720;23.252;2023-08-07T10:50:36;94401.88;;;30.10;55.08
20620;BME280;10469;42.720;23.252;2023-08-07T10:53:19;94405.91;;;29.90;57.86
20620;BME280;10469;42.720;23.252;2023-08-07T10:55:46;94402.91;;;30.55;49.68
20620;BME280;10469;42.720;23.252;2023-08-07T10:58:23;94402.28;;;28.78;54.29
20620;BME280;10469;42.720;23.252;2023-08-07T11:00:50;94392.41;;;30.38;52.02
20620;BME280;10469;42.720;23.252;2023-08-07T11:03:28;94387.03;;;30.52;48.51
20620;BME280;10469;42.720;23.252;2023-08-07T11:05:57;94376.13;;;31.75;44.57
20620;BME280;10469;42.720;23.252;2023-08-07T11:08:24;94370.94;;;32.97;41.30
20620;BME280;10469;42.720;23.252;2023-08-07T11:10:51;94373.69;;;32.17;41.24
20620;BME280;10469;42.720;23.252;2023-08-07T11:13:17;94377.53;;;31.13;43.38
20620;BME280;10469;42.720;23.252;2023-08-07T11:15:45;94375.81;;;31.02;47.14
20620;BME280;10469;42.720;23.252;2023-08-07T11:18:11;94362.06;;;28.58;55.47
20620;BME280;10469;42.720;23.252;2023-08-07T11:20:37;94355.50;;;29.73;53.75
20620;BME280;10469;42.720;23.252;2023-08-07T11:23:04;94357.97;;;30.65;47.80
20620;BME280;10469;42.720;23.252;2023-08-07T11:25:30;94372.19;;;28.92;50.56
20620;BME280;10469;42.720;23.252;2023-08-07T11:27:56;94361.28;;;30.75;44.99
20620;BME280;10469;42.720;23.252;2023-08-07T11:30:22;94365.63;;;31.50;45.01
20620;BME280;10469;42.720;23.252;2023-08-07T11:32:47;94358.22;;;30.53;47.68
20620;BME280;10469;42.720;23.252;2023-08-07T11:35:13;94358.25;;;32.23;44.47
20620;BME280;10469;42.720;23.252;2023-08-07T11:37:48;94351.25;;;32.40;41.46
20620;BME280;10469;42.720;23.252;2023-08-07T11:40:14;94343.78;;;31.01;44.89
20620;BME280;10469;42.720;23.252;2023-08-07T11:42:42;94347.28;;;31.83;42.76
20620;BME280;10469;42.720;23.252;2023-08-07T11:45:08;94352.22;;;30.17;47.62
20620;BME280;10469;42.720;23.252;2023-08-07T11:47:34;94346.53;;;29.80;48.93
20620;BME280;10469;42.720;23.252;2023-08-07T11:50:01;94340.31;;;29.87;49.17
20620;BME280;10469;42.720;23.252;2023-08-07T11:52:27;94348.00;;;29.51;50.16
20620;BME280;10469;42.720;23.252;2023-08-07T11:54:53;94357.72;;;29.18;53.17
20620;BME280;10469;42.720;23.252;2023-08-07T11:57:21;94356.88;;;29.87;53.11
20620;BME280;10469;42.720;23.252;2023-08-07T11:59:51;94346.91;;;30.32;51.26
20620;BME280;10469;42.720;23.252;2023-08-07T12:02:16;94321.00;;;30.47;54.17
20620;BME280;10469;42.720;23.252;2023-08-07T12:04:42;94337.59;;;29.41;57.83
20620;BME280;10469;42.720;23.252;2023-08-07T12:07:08;94340.84;;;28.23;62.04
20620;BME280;10469;42.720;23.252;2023-08-07T12:09:36;94351.69;;;27.01;72.48
20620;BME280;10469;42.720;23.252;2023-08-07T12:12:02;94354.25;;;26.79;74.71
20620;BME280;10469;42.720;23.252;2023-08-07T12:14:31;94330.16;;;26.32;78.89
20620;BME280;10469;42.720;23.252;2023-08-07T12:16:57;94351.09;;;27.08;77.06
20620;BME280;10469;42.720;23.252;2023-08-07T12:19:23;94345.94;;;26.47;78.96
20620;BME280;10469;42.720;23.252;2023-08-07T12:21:48;94340.47;;;27.38;74.09
20620;BME280;10469;42.720;23.252;2023-08-07T12:24:14;94338.75;;;27.02;77.29
20620;BME280;10469;42.720;23.252;2023-08-07T12:26:39;94338.63;;;26.98;80.19
20620;BME280;10469;42.720;23.252;2023-08-07T12:29:05;94342.44;;;27.38;76.97
20620;BME280;10469;42.720;23.252;2023-08-07T12:31:30;94333.53;;;27.29;79.26
20620;BME280;10469;42.720;23.252;2023-08-07T12:33:56;94330.66;;;26.93;82.26
20620;BME280;10469;42.720;23.252;2023-08-07T12:36:22;94346.06;;;27.26;83.13
20620;BME280;10469;42.720;23.252;2023-08-07T12:38:47;94333.75;;;27.87;78.20
20620;BME280;10469;42.720;23.252;2023-08-07T12:41:13;94348.31;;;27.71;78.37
20620;BME280;10469;42.720;23.252;2023-08-07T12:43:39;94358.06;;;26.90;84.96
20620;BME280;10469;42.720;23.252;2023-08-07T12:46:05;94345.66;;;26.96;84.07
20620;BME280;10469;42.720;23.252;2023-08-07T12:48:30;94354.78;;;26.84;87.49
20620;BME280;10469;42.720;23.252;2023-08-07T12:50:56;94361.97;;;26.45;89.94
20620;BME280;10469;42.720;23.252;2023-08-07T12:53:21;94363.25;;;25.83;93.27
20620;BME280;10469;42.720;23.252;2023-08-07T12:55:47;94361.72;;;26.38;92.85